LRCK - CONSTANTA / MIHAIL KOGALNICEANU-CONSTANTA

Compiled: 17:57:54 on 22/07/2018

Latest METAR/SPECI Reports

METAR LRCK 221730Z 19013KT 9999 SCT030CB 18/18 Q1008 RETS R18/290595 BECMG NSC=

Previous reports

METAR LRCK 221700Z 19006KT 160V230 9999 -TSRA FEW017 SCT030CB 18/17 Q1008 R18/290595 BECMG -SHRA=
SPECI LRCK 221636Z 13009KT 5000 -TSRA FEW015 BKN030CB 17/17 Q1008 RERA R36/290595 BECMG 9999 -SHRA=
METAR LRCK 221630Z 05007KT 010V080 2500 TSRA SCT015 BKN027CB 17/17 Q1010 R36/290595 BECMG 5000 -TSRA=
SPECI LRCK 221613Z 31028KT 0800 R18/1800D +TSRA SCT017 BKN038CB 20/18 Q1011 TEMPO 0600 +TSRAGR=

Latest TAF report

TAF COR LRCK 221743Z 2218/2318 19008KT 9999 SCT035CB BECMG 2219/2221 NSC TEMPO 2221/2302 5000 BR BECMG 2302/2304 27012KT SCT040CB BECMG 2305/2307 5000 -SHRA TEMPO 2309/2315 VRB20KT 3000 TSRA SCT010 BKN035CB=

Valid WARNINGS

No valid warnings for LRCK